Kezdőlap
METAR-TAF:

METAR-TAF

Repülőterek :

Fort Severn, Ontario, Kanada

földrajzi szélesség: 56-01-08N, földrajzi hosszúság: 87-40-34W, magasság: 16 m

Jelenlegi meteorológiai megfigyelések

A jelentés 49 perccel ezelõtt készült, 17:00 UTC
Déli szél 10 kt széllökések: 16 kt
Hőmérséklet 22°C
Páratartalom 50%
Légköri nyomás 1022 hPa
Látótávolság: 14.5 km
Derült ég

METAR: CYER 131700Z AUTO 17010G16KT 9SM CLR 22/11 A3018 RMK SLP222 DENSITY ALT 500FT

Idő: 13:49 (17:49 UTC)

Előrejelzés

A jelentés 3 órával és 11 perccel ezelõtt készült, 14:38 UTC
Az előrejelzés 13-én 15 óra UTC és 13-én 19 óra UTC között érvényes
Déli szél 5 kt
Látótávolság: 10 km
Derült ég
13-én 15 óra UTC és 13-én 17 óra UTC között fokozatosan kialakuló
Dél-délkeleti szél 12 kt

TAF: CYER 131438Z 1315/1319 17005KT P6SM SKC BECMG 1315/1317 15012KT RMK FCST BASED ON AUTO OBS. NXT FCST WILL BE ISSUED AT 140845Z

Meteorológiai megfigyelések és előrejelzések több, mint 4000 repülőtéren (METAR és TAF jelentéseket).

A térképen piros és sárga pontok jelzik az elérhető meteorológiai állomásokat.

Mozgassa az egeret a pont fölött, hogy megjelenjen az állomás neve.

Azután kattintson az időjárási megfigyelések és előrejelzések megtekintéséhez.

A térkép megváltoztatása: kattintson a fekete keresztel jelölt zöld gombra ráközelítéshez, a vonallal jelölt zöld gombra távolításhoz, vagy a zöld nyilakra a szomszédos térképek eléréséhez.


METAR-TAF: